Joe Foss Field Airport
KFSD : now visible

Airfield :











YOU CAN JOIN US ON...

 
LOGIN :

Register | Disclaimer

   EN    FR    IT 

 









Legend :    VFR   Marginal VFR   IFR   Intensive IFR   Very Intensive IFR
Visi :
Ceiling :
>= 8 km
>= 3000ft
5 to 8 km
1000 to 3000 ft
1500m to 5 km
500 to 1000 ft
800 to 1500m
200 to 500 ft
< 800m
< 200 ft
Symbols :   Thunderstorms  Fog  Heavy snow  Heavy precipitations  Wind > 20 kt






- Airport Elevation : 1429 ft
- IATA code : FSD


KFSD - Joe Foss Field

CURRENT METAR :
  • 202056Z 31023G33KT 10SM BKN035 BKN043 BKN160 23/14 A2966 RMK AO2 PK WND 32034/2024 SLP038 60000 T02280139 53015

EXPIRED METARs :
  • 201956Z 29015G31KT 10SM BKN039 BKN160 BKN200 24/15 A2964 RMK AO2 PK WND 28031/1949 SLP030 T02390150
  • 201856Z 29016G26KT 10SM SCT026 SCT080 BKN160 BKN200 22/16 A2964 RMK AO2 PK WND 28028/1823 WSHFT 1750 RAE06B32E39 SLP028 P0000 T02170156
  • 201806Z 29014G27KT 10SM SCT020 SCT110 BKN150 BKN200 21/17 A2962 RMK AO2 PK WND 29027/1759 WSHFT 1750 RAE06 P0000 T02060167

TAF KFSD
Valid from the 20 at 18:00 until the 21 at 18:00 UTC


201741Z 2018/2118 27013G21KT P6SM VCSH SCT040 OVC090
FM201900 29016G26KT P6SM SCT026 BKN150
FM202030 31021G31KT P6SM BKN035
FM202300 34017G28KT P6SM BKN040
FM210800 34007KT P6SM FEW250
FM211400 34010G18KT P6SM SCT110
FM211600 35012G20KT P6SM SCT045
KZMP FIR / North America



MET'MAP, your aeronautical weather chart ! - Copyright ORBIFLY December 2007 - Disclaimer

ORBIFLY MET'MAP TEAM :

Programming & Development : Alexandra Zaïnal
Concept & original design : Baudouin d'Aumeries
Assistance for programming : Marc-Olivier Méhu
Technical & hardware support : Manuel Goepfert

Contact : metmap@orbifly.com




SOURCES & CREDITS :

   NOAA       Earth
Advisory